Time;durP1;ratioP1;P1;durP2;ratioP2;P2;SDS_P1;SDS_P2;PMS_P1;PMS_P2;Temp;Humidity;BMP_temperature;BMP_pressure;BME280_temperature;BME280_humidity;BME280_pressure;Samples;Min_cycle;Max_cycle;Signal;HPM_P1;HPM_P2
2021/12/28 00:00:59;;;;;;;8.95;5.15;;;;;;;7.60;100.00;92380.38;5011426;28;20046;-92
2021/12/28 00:03:26;;;;;;;10.20;5.70;;;;;;;7.61;100.00;92393.97;5003301;28;20854;-92
2021/12/28 00:05:54;;;;;;;11.02;5.70;;;;;;;8.35;100.00;92500.66;4991607;28;20498;-92
2021/12/28 00:08:21;;;;;;;8.95;5.20;;;;;;;7.95;100.00;92431.97;4991673;28;20081;-91
2021/12/28 00:10:49;;;;;;;8.35;4.22;;;;;;;8.29;100.00;92486.16;4991607;28;20050;-91
2021/12/28 00:13:18;;;;;;;5.70;3.85;;;;;;;7.95;100.00;92437.09;4991529;28;20049;-91
2021/12/28 00:18:58;;;;;;;12.05;5.90;;;;;;;7.41;100.00;92360.94;4993725;28;20046;-92
2021/12/28 00:21:30;;;;;;;10.32;5.88;;;;;;;7.53;100.00;92378.88;4986286;28;20409;-92
2021/12/28 00:24:01;;;;;;;9.25;4.43;;;;;;;8.10;100.00;92477.69;4991444;28;20050;-92
2021/12/28 00:26:34;;;;;;;7.47;4.00;;;;;;;7.70;100.00;92428.50;4990623;28;20397;-92
2021/12/28 00:29:09;;;;;;;5.40;3.65;;;;;;;7.17;100.00;92348.75;4991199;28;20050;-92
2021/12/28 00:35:28;;;;;;;4.93;2.90;;;;;;;7.56;100.00;92424.47;5000810;28;20048;-94
2021/12/28 00:38:32;;;;;;;6.88;3.22;;;;;;;6.99;100.00;92334.16;5002522;28;20049;-92
2021/12/28 00:41:11;;;;;;;7.97;3.13;;;;;;;7.53;100.00;92419.78;4971377;28;20510;-92
2021/12/28 00:43:54;;;;;;;9.55;3.17;;;;;;;7.55;100.00;92418.56;4970878;28;20057;-92
2021/12/28 00:46:26;;;;;;;7.00;3.25;;;;;;;7.82;100.00;92468.69;4971371;28;20711;-91
2021/12/28 00:48:54;;;;;;;5.60;3.10;;;;;;;7.18;100.00;92380.19;4971608;28;20057;-92
2021/12/28 00:51:21;;;;;;;5.97;3.10;;;;;;;7.91;100.00;92487.88;4970996;28;20435;-90
2021/12/28 00:53:48;;;;;;;4.72;3.05;;;;;;;7.37;100.00;92409.13;4971767;28;20057;-90
2021/12/28 00:56:15;;;;;;;6.75;3.20;;;;;;;7.13;100.00;92390.25;4971387;28;20050;-89
2021/12/28 00:58:42;;;;;;;6.15;3.88;;;;;;;7.34;100.00;92424.84;4971170;28;20046;-89
2021/12/28 01:01:10;;;;;;;6.20;3.78;;;;;;;7.87;100.00;92491.88;4971403;28;20058;-90
2021/12/28 01:03:38;;;;;;;5.55;3.55;;;;;;;7.32;100.00;92424.28;4988484;28;20050;-90
2021/12/28 01:06:06;;;;;;;5.63;3.22;;;;;;;7.75;100.00;92484.09;4991103;28;20128;-90
2021/12/28 01:08:33;;;;;;;5.55;3.35;;;;;;;7.42;100.00;92439.94;4989760;28;20074;-89
2021/12/28 01:11:03;;;;;;;8.65;4.43;;;;;;;7.32;100.00;92407.19;4990338;28;20057;-89
2021/12/28 01:13:30;;;;;;;6.80;4.03;;;;;;;7.84;100.00;92500.75;4990259;28;20049;-89
2021/12/28 01:15:57;;;;;;;6.53;4.00;;;;;;;7.88;100.00;92496.75;4990398;28;20054;-90
2021/12/28 01:18:24;;;;;;;7.57;4.65;;;;;;;7.87;100.00;92494.44;4990493;28;20050;-89
2021/12/28 01:20:53;;;;;;;8.25;5.00;;;;;;;7.86;100.00;92493.63;4990116;28;20050;-89
2021/12/28 01:23:21;;;;;;;9.38;5.55;;;;;;;7.51;100.00;92452.44;4990755;28;20425;-89
2021/12/28 01:25:48;;;;;;;10.50;6.03;;;;;;;7.91;100.00;92494.78;4990468;28;20053;-89
2021/12/28 01:28:15;;;;;;;7.85;5.43;;;;;;;7.90;100.00;92491.44;4990680;28;20058;-89
2021/12/28 01:30:42;;;;;;;8.77;5.25;;;;;;;7.73;100.00;92461.28;4990269;28;20049;-89
2021/12/28 01:33:10;;;;;;;10.23;5.68;;;;;;;7.88;100.00;92488.31;4990419;28;20096;-89
2021/12/28 01:35:38;;;;;;;13.63;5.95;;;;;;;7.85;100.00;92492.06;5008252;28;20398;-90
2021/12/28 01:38:06;;;;;;;7.78;4.93;;;;;;;7.91;100.00;92487.88;5010043;28;20050;-91
2021/12/28 01:40:36;;;;;;;9.00;4.38;;;;;;;7.37;100.00;92421.91;5009982;28;20045;-91
2021/12/28 01:43:10;;;;;;;11.20;4.20;;;;;;;7.91;100.00;92489.66;4997794;28;20153;-91
2021/12/28 01:45:44;;;;;;;8.13;4.65;;;;;;;7.15;100.00;92370.38;4997453;28;20504;-92
2021/12/28 01:48:14;;;;;;;9.70;4.97;;;;;;;7.20;100.00;92391.75;5006752;28;20136;-90
2021/12/28 01:50:42;;;;;;;8.55;4.97;;;;;;;7.86;100.00;92491.06;4986959;28;20064;-91
2021/12/28 01:53:11;;;;;;;7.78;4.68;;;;;;;7.09;100.00;92369.47;4997191;28;20041;-91
2021/12/28 01:55:41;;;;;;;8.63;5.13;;;;;;;7.44;100.00;92426.94;5009987;28;20077;-91
2021/12/28 01:58:08;;;;;;;9.80;5.38;;;;;;;7.45;100.00;92429.28;4995135;28;20149;-90
2021/12/28 02:00:36;;;;;;;10.45;4.60;;;;;;;7.63;100.00;92458.44;4990473;28;20390;-91
2021/12/28 02:03:07;;;;;;;8.73;4.55;;;;;;;7.80;100.00;92476.56;4989881;28;20521;-91
2021/12/28 02:05:34;;;;;;;9.35;5.35;;;;;;;7.70;100.00;92456.63;4989866;28;20506;-90
2021/12/28 02:08:01;;;;;;;9.98;5.25;;;;;;;7.62;100.00;92452.56;4990719;28;20149;-90
2021/12/28 02:10:30;;;;;;;8.57;4.20;;;;;;;7.02;100.00;92373.81;4990363;28;20050;-91
2021/12/28 02:12:57;;;;;;;8.02;4.72;;;;;;;6.89;100.00;92331.31;4990437;28;20074;-91
2021/12/28 02:15:24;;;;;;;8.80;4.53;;;;;;;7.16;100.00;92377.03;4990353;28;20497;-91
2021/12/28 02:17:52;;;;;;;7.75;3.70;;;;;;;7.44;100.00;92424.38;4990025;28;20084;-91
2021/12/28 02:20:22;;;;;;;6.15;3.55;;;;;;;6.59;100.00;92296.97;4990272;28;20149;-91
2021/12/28 02:22:50;;;;;;;4.32;2.92;;;;;;;6.99;100.00;92362.25;4992068;28;20454;-91
2021/12/28 02:25:18;;;;;;;6.03;3.40;;;;;;;7.30;100.00;92408.38;4993710;28;20133;-90
2021/12/28 02:27:45;;;;;;;4.65;3.20;;;;;;;7.75;100.00;92474.66;4993250;28;20046;-91
2021/12/28 02:30:15;;;;;;;5.03;2.35;;;;;;;7.35;100.00;92429.75;4993623;28;20057;-91
2021/12/28 02:32:44;;;;;;;7.82;2.90;;;;;;;7.29;100.00;92420.38;4993549;28;20042;-92
2021/12/28 02:35:14;;;;;;;4.80;2.78;;;;;;;6.66;100.00;92328.31;5007902;28;20060;-91
2021/12/28 02:37:43;;;;;;;5.88;3.53;;;;;;;6.76;100.00;92340.63;5012608;28;20111;-92
2021/12/28 02:40:15;;;;;;;6.85;3.85;;;;;;;6.77;100.00;92326.09;5012802;28;20072;-91
2021/12/28 02:42:42;;;;;;;10.18;6.18;;;;;;;7.14;100.00;92382.38;5012981;28;20054;-92
2021/12/28 02:45:12;;;;;;;5.65;4.00;;;;;;;7.15;100.00;92383.16;5012710;28;20046;-91
2021/12/28 02:47:41;;;;;;;19.20;11.30;;;;;;;7.13;100.00;92378.25;5000686;28;20474;-91
2021/12/28 02:50:10;;;;;;;7.53;3.85;;;;;;;7.09;100.00;92365.13;4992190;28;20568;-90
2021/12/28 02:52:39;;;;;;;11.20;4.57;;;;;;;7.31;100.00;92389.53;4992600;28;20081;-91
2021/12/28 02:55:12;;;;;;;10.77;5.45;;;;;;;7.84;100.00;92461.59;4992704;28;20054;-92
2021/12/28 02:57:46;;;;;;;11.23;4.30;;;;;;;7.39;100.00;92381.56;4992642;28;20038;-90
2021/12/28 03:00:15;;;;;;;23.40;13.25;;;;;;;7.04;100.00;92324.09;4992497;28;20478;-90
2021/12/28 03:02:42;;;;;;;12.23;5.93;;;;;;;7.72;100.00;92439.28;4992915;28;20054;-90
2021/12/28 03:05:09;;;;;;;18.15;10.38;;;;;;;7.22;100.00;92384.66;4992672;28;20058;-91
2021/12/28 03:07:36;;;;;;;6.70;3.72;;;;;;;7.39;100.00;92411.44;4992942;28;20137;-90
2021/12/28 03:10:04;;;;;;;10.15;3.92;;;;;;;7.35;100.00;92421.31;4992875;28;20050;-91
2021/12/28 03:12:33;;;;;;;5.82;3.88;;;;;;;7.58;100.00;92459.06;4992747;28;20061;-91
2021/12/28 03:14:59;;;;;;;3.63;2.70;;;;;;;6.91;100.00;92365.84;4992809;28;20112;-91
2021/12/28 03:17:27;;;;;;;5.32;3.20;;;;;;;7.22;100.00;92417.88;4992536;28;20042;-90
2021/12/28 03:19:54;;;;;;;8.15;3.78;;;;;;;7.64;100.00;92479.66;4992581;28;20050;-90
2021/12/28 03:22:20;;;;;;;6.75;3.58;;;;;;;7.13;100.00;92416.56;4992339;28;20038;-91
2021/12/28 03:24:47;;;;;;;7.13;4.55;;;;;;;7.56;100.00;92471.28;4992702;28;20082;-90
2021/12/28 03:27:14;;;;;;;8.25;4.72;;;;;;;6.51;100.00;92312.53;4992383;28;20073;-91
2021/12/28 03:29:43;;;;;;;4.25;3.13;;;;;;;7.65;100.00;92479.47;4992553;28;20058;-91
2021/12/28 03:32:10;;;;;;;3.97;2.72;;;;;;;7.66;100.00;92463.13;4992083;28;20053;-88
2021/12/28 03:34:37;;;;;;;8.38;3.53;;;;;;;6.92;100.00;92367.41;5001647;28;20045;-89
2021/12/28 03:37:04;;;;;;;4.68;2.80;;;;;;;7.44;100.00;92442.25;5011612;28;20038;-89
2021/12/28 03:39:34;;;;;;;7.10;3.15;;;;;;;7.55;100.00;92458.72;5008730;28;20041;-90
2021/12/28 03:42:02;;;;;;;7.82;3.13;;;;;;;7.54;100.00;92457.16;4992131;28;20137;-90
2021/12/28 03:44:29;;;;;;;6.57;4.00;;;;;;;7.36;100.00;92445.84;4992105;28;20057;-90
2021/12/28 03:46:57;;;;;;;7.75;4.78;;;;;;;7.33;100.00;92430.97;4992035;28;20046;-90
2021/12/28 03:49:24;;;;;;;13.57;6.97;;;;;;;7.07;100.00;92400.31;4992131;28;20070;-91
2021/12/28 03:51:51;;;;;;;8.07;4.40;;;;;;;6.91;100.00;92395.69;4991538;28;20149;-91
2021/12/28 03:54:18;;;;;;;13.77;8.88;;;;;;;6.81;100.00;92375.75;4991739;28;20050;-91
2021/12/28 03:56:45;;;;;;;6.32;4.22;;;;;;;7.55;100.00;92476.59;4991556;28;20042;-89
2021/12/28 03:59:12;;;;;;;13.15;10.05;;;;;;;7.05;100.00;92401.50;4992703;28;20050;-89
2021/12/28 04:01:39;;;;;;;11.55;7.30;;;;;;;7.59;100.00;92482.84;4991471;28;20512;-88
2021/12/28 04:04:08;;;;;;;13.32;7.25;;;;;;;6.93;100.00;92381.75;4991570;28;20062;-91
2021/12/28 04:06:35;;;;;;;8.20;4.38;;;;;;;7.55;100.00;92479.16;4991601;28;20058;-91
2021/12/28 04:09:04;;;;;;;6.88;3.75;;;;;;;6.89;100.00;92379.81;4991395;28;20042;-91
2021/12/28 04:11:31;;;;;;;8.07;4.57;;;;;;;7.40;100.00;92448.81;4991591;28;20054;-89
2021/12/28 04:14:01;;;;;;;7.82;4.85;;;;;;;6.94;100.00;92390.16;4991657;28;20401;-88
2021/12/28 04:16:30;;;;;;;13.65;7.15;;;;;;;6.80;100.00;92380.06;4991517;28;20058;-89
2021/12/28 04:18:57;;;;;;;6.90;4.13;;;;;;;7.55;100.00;92477.34;4991138;28;20061;-88
2021/12/28 04:21:26;;;;;;;9.00;4.13;;;;;;;7.60;100.00;92486.97;4991466;28;20042;-86
2021/12/28 04:23:53;;;;;;;10.85;6.20;;;;;;;7.58;100.00;92488.94;4991436;28;20101;-88
2021/12/28 04:26:21;;;;;;;9.50;6.10;;;;;;;6.68;100.00;92372.28;4991392;28;20042;-89
2021/12/28 04:28:48;;;;;;;13.48;7.38;;;;;;;7.43;100.00;92491.81;4991003;28;20046;-90
2021/12/28 04:31:15;;;;;;;13.75;7.70;;;;;;;7.36;100.00;92486.72;4991184;28;20054;-88
2021/12/28 04:33:42;;;;;;;13.10;8.45;;;;;;;7.42;100.00;92491.03;4993523;28;20057;-88
2021/12/28 04:36:12;;;;;;;12.00;6.20;;;;;;;6.64;100.00;92398.41;5010392;28;20049;-88
2021/12/28 04:38:42;;;;;;;45.75;24.40;;;;;;;6.76;100.00;92417.19;5010292;28;20041;-88
2021/12/28 04:41:11;;;;;;;53.55;27.45;;;;;;;6.74;100.00;92415.81;5010219;28;20144;-88
2021/12/28 04:43:38;;;;;;;23.13;13.68;;;;;;;7.37;100.00;92498.53;5010358;28;20056;-88
2021/12/28 04:46:06;;;;;;;23.30;13.90;;;;;;;6.35;100.00;92347.72;5010079;28;20056;-92
2021/12/28 04:48:33;;;;;;;18.13;10.27;;;;;;;6.35;100.00;92336.75;5010495;28;20050;-92
2021/12/28 04:51:01;;;;;;;15.43;9.23;;;;;;;6.84;100.00;92436.59;5010282;28;20058;-91
2021/12/28 04:53:29;;;;;;;20.33;11.98;;;;;;;6.24;100.00;92351.72;5010593;28;20054;-92
2021/12/28 04:55:58;;;;;;;25.00;14.73;;;;;;;5.91;100.00;92301.66;5010574;28;20116;-92
2021/12/28 04:58:25;;;;;;;18.58;10.48;;;;;;;7.01;100.00;92453.97;4992032;28;20070;-92
2021/12/28 05:00:54;;;;;;;17.92;10.68;;;;;;;6.08;100.00;92319.84;4990707;28;20129;-92
2021/12/28 05:03:22;;;;;;;17.48;9.80;;;;;;;6.67;100.00;92403.13;4990814;28;20054;-91
2021/12/28 05:05:52;;;;;;;26.00;13.25;;;;;;;6.77;100.00;92405.22;4990567;28;20550;-90
2021/12/28 05:08:21;;;;;;;20.65;11.77;;;;;;;6.84;100.00;92407.75;4990616;28;20058;-89
2021/12/28 05:10:48;;;;;;;18.42;8.77;;;;;;;6.82;100.00;92403.59;4990603;28;20050;-89
2021/12/28 05:13:17;;;;;;;10.20;6.43;;;;;;;6.86;100.00;92406.53;4990528;28;20053;-88
2021/12/28 05:15:45;;;;;;;11.95;6.05;;;;;;;7.33;100.00;92464.16;4990430;28;20042;-89
2021/12/28 05:18:14;;;;;;;7.03;4.70;;;;;;;7.01;100.00;92430.97;4990119;28;20069;-89
2021/12/28 05:20:42;;;;;;;9.60;4.60;;;;;;;7.27;100.00;92455.56;4989695;28;20054;-88
2021/12/28 05:23:09;;;;;;;7.22;3.70;;;;;;;7.54;100.00;92491.13;5007833;28;20056;-88
2021/12/28 05:25:36;;;;;;;7.88;4.70;;;;;;;6.99;100.00;92410.00;4990311;28;20483;-88
2021/12/28 05:28:04;;;;;;;20.75;10.98;;;;;;;7.54;100.00;92493.69;4979630;28;20046;-90
2021/12/28 05:30:33;;;;;;;8.07;5.78;;;;;;;6.69;100.00;92367.97;4984596;28;20046;-89
2021/12/28 05:33:00;;;;;;;15.73;7.47;;;;;;;7.42;100.00;92469.81;4988845;28;20046;-89
2021/12/28 05:35:27;;;;;;;16.30;8.82;;;;;;;7.32;100.00;92460.06;4988454;28;20084;-89
2021/12/28 05:37:54;;;;;;;14.70;8.93;;;;;;;7.22;100.00;92443.41;4986749;28;20053;-89
2021/12/28 05:40:21;;;;;;;25.63;16.35;;;;;;;7.47;100.00;92475.88;4989678;28;20049;-88
2021/12/28 05:42:48;;;;;;;24.65;16.55;;;;;;;6.88;100.00;92406.31;4990013;28;20058;-87
2021/12/28 05:45:15;;;;;;;30.65;17.83;;;;;;;6.76;100.00;92413.88;4987273;28;20577;-89
2021/12/28 05:47:43;;;;;;;26.98;15.57;;;;;;;6.65;100.00;92395.66;4989998;28;20046;-88
2021/12/28 05:50:11;;;;;;;25.33;16.38;;;;;;;6.90;100.00;92424.78;4989579;28;20050;-88
2021/12/28 05:52:39;;;;;;;29.95;17.77;;;;;;;6.93;100.00;92419.25;4989892;28;20046;-88
2021/12/28 05:55:07;;;;;;;44.20;25.42;;;;;;;7.24;100.00;92465.41;4989683;28;20054;-88
2021/12/28 05:57:33;;;;;;;36.70;22.30;;;;;;;6.72;100.00;92392.28;4989626;28;20049;-89
2021/12/28 06:00:00;;;;;;;60.20;37.03;;;;;;;7.48;100.00;92492.75;4993679;28;20046;-89
2021/12/28 06:02:27;;;;;;;28.60;18.27;;;;;;;7.04;100.00;92431.34;4993536;28;20046;-89
2021/12/28 06:04:55;;;;;;;25.48;15.20;;;;;;;7.09;100.00;92439.19;4993223;28;20047;-86
2021/12/28 06:07:27;;;;;;;23.98;14.32;;;;;;;7.24;100.00;92466.19;4993527;28;20042;-87
2021/12/28 06:09:55;;;;;;;26.15;16.00;;;;;;;7.43;100.00;92502.03;4990488;28;20042;-86
2021/12/28 06:12:21;;;;;;;26.75;16.25;;;;;;;7.38;100.00;92500.09;4993311;28;20397;-88
2021/12/28 06:14:48;;;;;;;28.40;16.25;;;;;;;6.99;100.00;92456.72;4993176;28;20389;-87
2021/12/28 06:17:15;;;;;;;25.38;16.45;;;;;;;6.92;100.00;92466.19;4993050;28;20134;-87
2021/12/28 06:19:42;;;;;;;31.25;18.33;;;;;;;7.03;100.00;92501.28;4993223;28;20042;-88
2021/12/28 06:22:11;;;;;;;47.38;29.90;;;;;;;6.89;100.00;92504.91;4992861;28;20058;-88
2021/12/28 06:24:38;;;;;;;30.63;20.63;;;;;;;6.52;100.00;92434.00;4992734;28;20053;-87
2021/12/28 06:27:05;;;;;;;30.10;19.08;;;;;;;6.61;100.00;92425.13;4992954;28;20450;-88
2021/12/28 06:29:32;;;;;;;47.17;27.75;;;;;;;6.60;100.00;92418.47;4992490;28;20042;-88
2021/12/28 06:31:59;;;;;;;35.05;21.15;;;;;;;7.25;100.00;92500.19;4993165;28;20046;-88
2021/12/28 06:34:26;;;;;;;25.85;15.13;;;;;;;6.93;100.00;92460.88;4992709;28;20046;-88
2021/12/28 06:36:53;;;;;;;23.65;15.25;;;;;;;6.85;100.00;92440.69;4992988;28;20057;-88
2021/12/28 06:39:21;;;;;;;30.05;17.65;;;;;;;7.09;100.00;92469.81;4992509;28;20047;-89
2021/12/28 06:41:48;;;;;;;30.65;19.08;;;;;;;6.38;100.00;92366.94;4992441;28;20050;-90
2021/12/28 06:44:15;;;;;;;28.63;14.60;;;;;;;6.85;100.00;92427.94;4990362;28;20049;-90
2021/12/28 06:46:42;;;;;;;27.48;16.35;;;;;;;6.47;100.00;92359.88;4992716;28;20046;-91
2021/12/28 06:49:10;;;;;;;27.88;16.10;;;;;;;7.36;100.00;92507.19;4992445;28;20057;-91
2021/12/28 06:51:37;;;;;;;25.67;14.65;;;;;;;6.54;100.00;92371.56;4992216;28;20046;-91
2021/12/28 06:54:04;;;;;;;19.83;12.07;;;;;;;7.59;100.00;92524.53;4992758;28;20045;-91
2021/12/28 06:56:33;;;;;;;19.60;11.95;;;;;;;6.89;100.00;92405.34;4992528;28;20061;-91
2021/12/28 06:59:01;;;;;;;32.97;17.67;;;;;;;6.64;100.00;92366.03;4992581;28;20478;-91
2021/12/28 07:01:28;;;;;;;27.95;15.15;;;;;;;7.59;100.00;92503.31;4992243;28;20057;-91
2021/12/28 07:03:55;;;;;;;30.88;16.27;;;;;;;7.03;100.00;92416.25;4989877;28;20046;-90
2021/12/28 07:06:23;;;;;;;25.42;14.50;;;;;;;7.32;100.00;92467.72;4992444;28;20051;-90
2021/12/28 07:08:50;;;;;;;27.02;17.42;;;;;;;7.84;100.00;92531.44;4991497;28;20474;-90
2021/12/28 07:11:18;;;;;;;24.75;14.85;;;;;;;7.68;100.00;92521.72;4992287;28;20049;-89
2021/12/28 07:13:47;;;;;;;60.90;27.33;;;;;;;6.90;100.00;92450.31;4992328;28;20049;-90
2021/12/28 07:16:14;;;;;;;58.25;26.85;;;;;;;7.19;100.00;92496.69;4992457;28;20129;-91
2021/12/28 07:18:41;;;;;;;54.97;27.02;;;;;;;7.31;100.00;92512.91;4992034;28;20034;-91
2021/12/28 07:21:08;;;;;;;43.35;22.23;;;;;;;7.29;100.00;92521.78;4991904;28;20054;-91
2021/12/28 07:23:35;;;;;;;44.33;23.67;;;;;;;7.35;100.00;92531.16;4991998;28;20494;-91
2021/12/28 07:26:02;;;;;;;34.08;22.20;;;;;;;6.37;100.00;92384.03;4991839;28;20050;-91
2021/12/28 07:28:29;;;;;;;25.20;17.83;;;;;;;6.80;100.00;92451.53;4991818;28;20057;-91
2021/12/28 07:30:57;;;;;;;30.17;20.10;;;;;;;7.27;100.00;92537.28;4989382;28;20046;-91
2021/12/28 07:33:24;;;;;;;46.72;26.08;;;;;;;6.81;100.00;92465.09;4991981;28;20110;-91
2021/12/28 07:35:51;;;;;;;44.70;25.70;;;;;;;7.05;100.00;92521.53;4991846;28;20048;-90
2021/12/28 07:38:18;;;;;;;36.00;21.38;;;;;;;6.97;100.00;92522.53;4981396;28;20046;-90
2021/12/28 07:40:45;;;;;;;29.70;20.00;;;;;;;7.16;100.00;92541.31;4997513;28;20573;-90
2021/12/28 07:43:15;;;;;;;32.17;18.83;;;;;;;7.16;100.00;92533.63;4991648;28;20054;-90
2021/12/28 07:45:42;;;;;;;28.60;17.73;;;;;;;6.80;100.00;92486.47;4991395;28;20042;-90
2021/12/28 07:48:11;;;;;;;43.67;23.75;;;;;;;6.81;100.00;92501.59;4991382;28;20061;-90
2021/12/28 07:50:37;;;;;;;34.83;23.00;;;;;;;6.53;100.00;92472.06;4991410;28;20046;-89
2021/12/28 07:53:06;;;;;;;30.73;20.40;;;;;;;6.85;100.00;92535.16;4991522;28;20061;-89
2021/12/28 07:55:33;;;;;;;34.22;20.98;;;;;;;6.80;100.00;92525.56;4991048;28;20050;-89
2021/12/28 07:57:59;;;;;;;37.22;25.05;;;;;;;7.00;100.00;92536.66;4991333;28;20054;-89
2021/12/28 08:00:28;;;;;;;48.72;29.73;;;;;;;7.05;100.00;92536.84;4991399;28;20073;-89
2021/12/28 08:02:55;;;;;;;50.47;31.63;;;;;;;7.01;100.00;92533.91;4988479;28;20046;-90
2021/12/28 08:05:24;;;;;;;71.30;39.97;;;;;;;6.19;100.00;92433.16;4990990;28;20042;-90
2021/12/28 08:07:51;;;;;;;33.45;23.20;;;;;;;6.37;100.00;92458.00;4990932;28;20057;-89
2021/12/28 08:10:21;;;;;;;28.65;19.75;;;;;;;6.97;100.00;92532.75;4991235;28;20047;-90
2021/12/28 08:12:49;;;;;;;29.63;19.45;;;;;;;6.73;100.00;92476.31;4990964;28;20065;-90
2021/12/28 08:15:16;;;;;;;25.02;15.90;;;;;;;6.67;100.00;92449.81;4988896;28;20142;-89
2021/12/28 08:17:44;;;;;;;24.05;14.85;;;;;;;6.80;100.00;92450.75;4990851;28;20478;-91
2021/12/28 08:20:13;;;;;;;21.58;13.32;;;;;;;6.84;100.00;92434.03;4986321;28;20058;-91
2021/12/28 08:22:42;;;;;;;25.88;15.73;;;;;;;6.86;100.00;92426.97;4989076;28;20403;-92
2021/12/28 08:25:12;;;;;;;25.92;14.75;;;;;;;7.05;100.00;92450.03;4989594;28;20090;-92
2021/12/28 08:27:40;;;;;;;27.25;15.48;;;;;;;6.54;100.00;92350.41;4988733;28;20056;-91
2021/12/28 08:30:09;;;;;;;27.00;15.77;;;;;;;7.35;100.00;92451.97;4990911;28;20065;-90
2021/12/28 08:32:36;;;;;;;30.85;16.98;;;;;;;6.74;100.00;92355.38;4988259;28;20058;-91
2021/12/28 08:35:05;;;;;;;27.42;16.67;;;;;;;7.61;100.00;92445.09;4990506;28;20508;-91
2021/12/28 08:37:33;;;;;;;26.17;16.48;;;;;;;7.81;100.00;92447.47;4990420;28;20482;-91
2021/12/28 08:40:02;;;;;;;34.53;18.17;;;;;;;8.08;100.00;92454.09;4990243;28;20382;-92
2021/12/28 08:42:29;;;;;;;34.53;17.10;;;;;;;8.55;100.00;92497.91;4990537;28;20054;-92
2021/12/28 08:44:56;;;;;;;24.65;14.90;;;;;;;8.35;100.00;92446.91;4987968;28;20105;-93
2021/12/28 08:47:26;;;;;;;24.17;14.45;;;;;;;8.27;100.00;92413.94;4990554;28;20050;-91
2021/12/28 08:49:58;;;;;;;28.08;16.52;;;;;;;8.67;100.00;92462.09;4989925;28;20108;-93
2021/12/28 08:52:26;;;;;;;29.92;14.43;;;;;;;8.46;100.00;92404.44;4990433;28;20092;-92
2021/12/28 08:54:54;;;;;;;22.10;13.02;;;;;;;8.25;100.00;92359.66;4990139;28;20141;-92
2021/12/28 08:57:23;;;;;;;17.52;12.10;;;;;;;8.77;100.00;92410.41;4990324;28;20038;-91
2021/12/28 08:59:50;;;;;;;26.15;13.07;;;;;;;8.62;100.00;92356.25;4990169;28;20046;-92
2021/12/28 09:02:17;;;;;;;29.85;13.65;;;;;;;9.08;100.00;92407.81;4989995;28;20061;-92
2021/12/28 09:04:46;;;;;;;23.52;13.85;;;;;;;8.88;100.00;92362.75;4990181;28;20050;-92
2021/12/28 09:07:13;;;;;;;21.00;11.63;;;;;;;9.24;100.00;92408.94;4990142;28;20046;-92
2021/12/28 09:09:41;;;;;;;23.15;13.88;;;;;;;9.99;100.00;92506.75;4990071;28;20050;-91
2021/12/28 09:12:09;;;;;;;20.23;11.75;;;;;;;9.11;100.00;92363.03;4990223;28;20078;-91
2021/12/28 09:14:39;;;;;;;16.77;8.93;;;;;;;10.16;100.00;92501.75;4990125;28;20046;-92
2021/12/28 09:17:11;;;;;;;33.65;20.00;;;;;;;9.86;100.00;92442.88;4989840;28;20060;-92
2021/12/28 09:19:41;;;;;;;76.53;33.03;;;;;;;9.90;100.00;92438.81;4985852;28;20042;-93
2021/12/28 09:22:10;;;;;;;332.33;179.20;;;;;;;9.97;100.00;92444.63;4989642;28;20133;-92
2021/12/28 09:24:37;;;;;;;25.00;13.35;;;;;;;9.83;100.00;92412.50;4986861;28;20050;-92
2021/12/28 09:27:05;;;;;;;30.67;16.67;;;;;;;9.73;100.00;92398.47;4989685;28;20505;-92
2021/12/28 09:29:33;;;;;;;12.88;6.75;;;;;;;10.06;100.00;92424.53;4989530;28;20042;-91
2021/12/28 09:32:02;;;;;;;11.05;5.35;;;;;;;10.20;100.00;92429.41;4990690;28;20084;-92
2021/12/28 09:34:31;;;;;;;14.75;8.30;;;;;;;10.10;100.00;92405.09;4993341;28;20054;-93
2021/12/28 09:36:58;;;;;;;28.33;18.55;;;;;;;9.68;100.00;92324.00;4991521;28;20086;-92
2021/12/28 09:39:27;;;;;;;19.75;11.52;;;;;;;10.32;100.00;92421.72;4989410;28;20038;-91
2021/12/28 09:41:58;;;;;;;44.13;25.25;;;;;;;10.49;100.00;92420.00;4992183;28;20054;-93
2021/12/28 09:44:26;;;;;;;14.65;8.57;;;;;;;10.26;100.00;92384.88;4993736;28;20050;-92
2021/12/28 09:46:55;;;;;;;9.50;4.68;;;;;;;11.18;100.00;92502.41;4993422;28;20065;-92
2021/12/28 09:49:25;;;;;;;9.85;5.03;;;;;;;10.92;100.00;92456.47;4991365;28;20060;-92
2021/12/28 09:51:52;;;;;;;13.00;7.30;;;;;;;10.41;100.00;92366.41;4991982;28;20062;-93
2021/12/28 09:54:20;;;;;;;6.03;3.78;;;;;;;10.49;100.00;92371.22;4989750;28;20055;-91
2021/12/28 09:56:47;;;;;;;5.55;3.72;;;;;;;10.77;100.00;92407.38;4993720;28;20069;-91
2021/12/28 09:59:14;;;;;;;11.95;6.38;;;;;;;11.33;100.00;92494.16;4993280;28;20048;-91
2021/12/28 10:01:42;;;;;;;16.98;7.82;;;;;;;11.48;100.00;92515.00;4992972;28;20038;-92
2021/12/28 10:04:09;;;;;;;25.25;12.98;;;;;;;11.01;100.00;92435.56;4992726;28;20564;-91
2021/12/28 10:06:38;;;;;;;11.98;6.13;;;;;;;10.29;100.00;92320.28;4992888;28;20074;-92
2021/12/28 10:09:10;;;;;;;9.63;4.07;;;;;;;10.61;100.00;92357.56;4992682;28;20152;-92
2021/12/28 10:11:40;;;;;;;7.28;3.30;;;;;;;11.49;100.00;92490.06;4988723;28;20042;-92
2021/12/28 10:14:19;;;;;;;5.47;2.75;;;;;;;11.21;100.00;92440.25;4993252;28;20051;-91
2021/12/28 10:16:51;;;;;;;10.90;3.88;;;;;;;11.26;100.00;92448.06;4991864;28;20042;-92
2021/12/28 10:20:15;;;;;;;5.93;2.92;;;;;;;11.58;100.00;92491.22;4990756;28;20038;-92
2021/12/28 10:22:47;;;;;;;;;;;;;;;11.52;100.00;92496.53;4990344;28;20470;-92
2021/12/28 10:25:17;;;;;;;15.93;8.38;;;;;;;10.26;100.00;92318.94;4992860;28;19925;-92
2021/12/28 10:27:49;;;;;;;7.95;3.90;;;;;;;11.03;100.00;92434.31;4993010;28;20121;-93
2021/12/28 10:30:21;;;;;;;6.78;3.72;;;;;;;11.20;100.00;92459.28;4993067;28;20046;-90
2021/12/28 10:32:50;;;;;;;9.02;7.10;;;;;;;11.25;100.00;92474.75;4992931;28;20070;-92
2021/12/28 10:35:21;;;;;;;9.30;5.10;;;;;;;10.42;100.00;92350.78;4990377;28;20049;-91
2021/12/28 10:38:05;;;;;;;6.47;3.58;;;;;;;10.47;100.00;92349.34;4992870;28;20129;-92
2021/12/28 10:40:34;;;;;;;6.22;3.67;;;;;;;10.34;100.00;92317.00;4967817;28;20047;-92
2021/12/28 10:43:07;;;;;;;11.60;5.85;;;;;;;11.11;100.00;92430.56;5004513;28;20143;-91
2021/12/28 10:45:38;;;;;;;7.88;3.28;;;;;;;10.41;100.00;92318.41;4992555;28;20038;-92
2021/12/28 10:48:08;;;;;;;9.07;3.67;;;;;;;10.84;100.00;92372.09;4992566;28;20058;-92
2021/12/28 10:50:38;;;;;;;12.45;6.63;;;;;;;10.60;100.00;92333.66;4989704;28;20101;-92
2021/12/28 10:53:21;;;;;;;9.38;4.47;;;;;;;11.05;100.00;92404.03;4992906;28;20052;-92
2021/12/28 10:55:55;;;;;;;19.67;11.02;;;;;;;10.98;100.00;92375.13;4992450;28;20434;-93
2021/12/28 10:58:40;;;;;;;27.73;15.15;;;;;;;11.12;100.00;92385.88;4992756;28;20144;-93
2021/12/28 11:01:11;;;;;;;26.67;16.00;;;;;;;11.06;100.00;92368.84;4977652;28;20043;-92
2021/12/28 11:03:49;;;;;;;43.65;24.08;;;;;;;10.65;100.00;92307.28;4973153;28;20562;-93
2021/12/28 11:06:19;;;;;;;24.00;14.40;;;;;;;11.14;100.00;92388.19;4972984;28;20506;-93
2021/12/28 11:09:04;;;;;;;9.57;5.50;;;;;;;10.72;100.00;92314.84;4973136;28;20456;-93
2021/12/28 11:11:40;;;;;;;8.20;4.22;;;;;;;11.13;100.00;92374.59;4972691;28;20514;-93
2021/12/28 11:14:11;;;;;;;10.10;6.07;;;;;;;10.77;100.00;92323.41;4973777;28;20069;-93
2021/12/28 11:16:43;;;;;;;17.80;9.23;;;;;;;11.27;100.00;92395.63;4972524;28;20418;-93
2021/12/28 11:22:32;;;;;;;13.20;6.87;;;;;;;11.23;100.00;92379.88;4971956;28;20113;-94
2021/12/28 11:42:30;;;;;;;14.55;8.20;;;;;;;10.94;100.00;92292.56;4933704;29;20038;-93
2021/12/28 11:44:58;;;;;;;15.48;8.27;;;;;;;11.89;100.00;92424.78;4931444;29;20052;-93
2021/12/28 11:47:26;;;;;;;70.28;32.60;;;;;;;11.48;100.00;92365.84;4970909;28;20399;-93
2021/12/28 11:49:56;;;;;;;55.13;27.90;;;;;;;12.03;100.00;92424.44;4971990;28;20070;-92
2021/12/28 11:52:23;;;;;;;17.08;9.10;;;;;;;11.66;99.47;92373.53;4971996;28;20398;-92
2021/12/28 11:54:52;;;;;;;34.00;16.88;;;;;;;11.59;99.83;92364.19;4972015;28;20121;-91
2021/12/28 11:57:22;;;;;;;16.08;8.52;;;;;;;11.00;99.64;92259.25;4972465;28;20150;-92
2021/12/28 11:59:54;;;;;;;8.98;3.80;;;;;;;12.09;98.71;92433.81;4972108;28;20560;-92